sensor_id;sensor_type;location;lat;lon;timestamp;P1;durP1;ratioP1;P2;durP2;ratioP2
7523;SDS011;3803;51.666;7.630;2022-07-30T09:59:55;23.38;;;20.83;;
7523;SDS011;3803;51.666;7.630;2022-07-30T10:04:44;27.48;;;22.20;;
7523;SDS011;3803;51.666;7.630;2022-07-30T10:10:58;22.80;;;20.02;;
7523;SDS011;3803;51.666;7.630;2022-07-30T10:12:12;20.55;;;18.35;;
7523;SDS011;3803;51.666;7.630;2022-07-30T10:13:37;21.13;;;18.25;;
7523;SDS011;3803;51.666;7.630;2022-07-30T10:14:53;19.30;;;17.05;;
7523;SDS011;3803;51.666;7.630;2022-07-30T10:15:48;18.63;;;15.82;;
7523;SDS011;3803;51.666;7.630;2022-07-30T10:16:39;16.90;;;15.10;;
7523;SDS011;3803;51.666;7.630;2022-07-30T10:17:31;20.05;;;15.32;;
7523;SDS011;3803;51.666;7.630;2022-07-30T10:23:33;14.15;;;11.90;;
7523;SDS011;3803;51.666;7.630;2022-07-30T10:30:07;14.43;;;12.98;;
7523;SDS011;3803;51.666;7.630;2022-07-30T10:30:47;14.03;;;12.53;;
7523;SDS011;3803;51.666;7.630;2022-07-30T10:31:26;13.85;;;11.88;;
7523;SDS011;3803;51.666;7.630;2022-07-30T10:32:18;16.05;;;12.02;;
7523;SDS011;3803;51.666;7.630;2022-07-30T10:36:54;11.48;;;9.60;;
7523;SDS011;3803;51.666;7.630;2022-07-30T10:38:21;12.13;;;9.15;;
7523;SDS011;3803;51.666;7.630;2022-07-30T10:39:14;15.82;;;9.98;;
7523;SDS011;3803;51.666;7.630;2022-07-30T10:39:56;10.05;;;9.10;;
7523;SDS011;3803;51.666;7.630;2022-07-30T10:41:09;9.25;;;7.95;;
7523;SDS011;3803;51.666;7.630;2022-07-30T10:43:43;9.15;;;7.60;;
7523;SDS011;3803;51.666;7.630;2022-07-30T10:44:06;8.70;;;7.68;;
7523;SDS011;3803;51.666;7.630;2022-07-30T10:45:00;9.57;;;8.50;;
7523;SDS011;3803;51.666;7.630;2022-07-30T10:50:52;9.98;;;7.68;;
7523;SDS011;3803;51.666;7.630;2022-07-30T10:51:47;9.20;;;7.80;;
7523;SDS011;3803;51.666;7.630;2022-07-30T10:52:48;11.43;;;8.35;;
7523;SDS011;3803;51.666;7.630;2022-07-30T10:53:40;8.93;;;8.02;;
7523;SDS011;3803;51.666;7.630;2022-07-30T10:55:27;9.20;;;8.40;;
7523;SDS011;3803;51.666;7.630;2022-07-30T10:56:17;8.93;;;8.13;;
7523;SDS011;3803;51.666;7.630;2022-07-30T10:57:01;8.82;;;8.02;;
7523;SDS011;3803;51.666;7.630;2022-07-30T10:58:21;8.00;;;7.30;;
7523;SDS011;3803;51.666;7.630;2022-07-30T10:59:00;7.13;;;6.53;;
7523;SDS011;3803;51.666;7.630;2022-07-30T11:00:19;8.05;;;7.07;;
7523;SDS011;3803;51.666;7.630;2022-07-30T11:01:00;8.00;;;7.30;;
7523;SDS011;3803;51.666;7.630;2022-07-30T11:02:08;6.43;;;5.82;;
7523;SDS011;3803;51.666;7.630;2022-07-30T11:03:40;6.03;;;5.43;;
7523;SDS011;3803;51.666;7.630;2022-07-30T11:05:44;5.50;;;5.00;;
7523;SDS011;3803;51.666;7.630;2022-07-30T11:06:39;6.20;;;5.70;;
7523;SDS011;3803;51.666;7.630;2022-07-30T11:11:47;5.63;;;4.93;;
7523;SDS011;3803;51.666;7.630;2022-07-30T11:15:23;5.57;;;5.07;;
7523;SDS011;3803;51.666;7.630;2022-07-30T11:17:57;5.30;;;4.80;;
7523;SDS011;3803;51.666;7.630;2022-07-30T11:19:00;6.10;;;5.10;;
7523;SDS011;3803;51.666;7.630;2022-07-30T11:21:12;5.60;;;4.38;;
7523;SDS011;3803;51.666;7.630;2022-07-30T11:22:27;4.68;;;4.13;;
7523;SDS011;3803;51.666;7.630;2022-07-30T11:24:00;5.72;;;4.10;;
7523;SDS011;3803;51.666;7.630;2022-07-30T11:24:47;5.50;;;4.93;;
7523;SDS011;3803;51.666;7.630;2022-07-30T11:25:38;6.60;;;4.57;;
7523;SDS011;3803;51.666;7.630;2022-07-30T11:27:46;3.95;;;3.67;;
7523;SDS011;3803;51.666;7.630;2022-07-30T11:28:41;3.90;;;3.50;;
7523;SDS011;3803;51.666;7.630;2022-07-30T11:30:38;5.43;;;3.70;;
7523;SDS011;3803;51.666;7.630;2022-07-30T11:31:41;6.10;;;4.00;;
7523;SDS011;3803;51.666;7.630;2022-07-30T11:32:31;3.97;;;3.43;;
7523;SDS011;3803;51.666;7.630;2022-07-30T11:33:44;5.22;;;3.50;;
7523;SDS011;3803;51.666;7.630;2022-07-30T11:34:48;4.18;;;3.80;;
7523;SDS011;3803;51.666;7.630;2022-07-30T11:37:32;5.00;;;4.32;;
7523;SDS011;3803;51.666;7.630;2022-07-30T11:39:02;4.50;;;4.05;;
7523;SDS011;3803;51.666;7.630;2022-07-30T11:44:27;6.18;;;3.75;;
7523;SDS011;3803;51.666;7.630;2022-07-30T11:46:52;4.82;;;3.78;;
7523;SDS011;3803;51.666;7.630;2022-07-30T11:47:20;5.32;;;4.00;;
7523;SDS011;3803;51.666;7.630;2022-07-30T11:48:00;5.60;;;3.90;;
7523;SDS011;3803;51.666;7.630;2022-07-30T11:48:41;7.55;;;3.80;;
7523;SDS011;3803;51.666;7.630;2022-07-30T11:49:21;5.07;;;4.10;;
7523;SDS011;3803;51.666;7.630;2022-07-30T11:49:59;4.50;;;4.10;;
7523;SDS011;3803;51.666;7.630;2022-07-30T11:50:33;4.95;;;4.25;;
7523;SDS011;3803;51.666;7.630;2022-07-30T11:51:24;5.72;;;5.05;;
7523;SDS011;3803;51.666;7.630;2022-07-30T11:52:00;5.47;;;4.97;;
7523;SDS011;3803;51.666;7.630;2022-07-30T11:53:26;4.60;;;4.20;;
7523;SDS011;3803;51.666;7.630;2022-07-30T11:54:56;7.53;;;4.30;;
7523;SDS011;3803;51.666;7.630;2022-07-30T11:55:54;5.13;;;4.72;;
7523;SDS011;3803;51.666;7.630;2022-07-30T11:57:08;6.03;;;4.60;;
7523;SDS011;3803;51.666;7.630;2022-07-30T11:57:57;4.70;;;4.30;;
7523;SDS011;3803;51.666;7.630;2022-07-30T11:59:53;5.10;;;4.60;;
7523;SDS011;3803;51.666;7.630;2022-07-30T12:00:41;4.85;;;4.45;;
7523;SDS011;3803;51.666;7.630;2022-07-30T12:01:38;5.35;;;4.70;;
7523;SDS011;3803;51.666;7.630;2022-07-30T12:02:26;6.25;;;4.53;;
7523;SDS011;3803;51.666;7.630;2022-07-30T12:03:18;5.65;;;4.60;;
7523;SDS011;3803;51.666;7.630;2022-07-30T12:04:11;7.70;;;4.80;;
7523;SDS011;3803;51.666;7.630;2022-07-30T12:04:54;5.30;;;4.80;;
7523;SDS011;3803;51.666;7.630;2022-07-30T12:06:03;6.03;;;5.53;;
7523;SDS011;3803;51.666;7.630;2022-07-30T12:06:31;5.80;;;5.20;;
7523;SDS011;3803;51.666;7.630;2022-07-30T12:07:10;5.72;;;4.97;;
7523;SDS011;3803;51.666;7.630;2022-07-30T12:07:59;6.10;;;5.50;;
7523;SDS011;3803;51.666;7.630;2022-07-30T12:09:16;6.65;;;5.90;;
7523;SDS011;3803;51.666;7.630;2022-07-30T12:10:24;7.78;;;6.38;;
7523;SDS011;3803;51.666;7.630;2022-07-30T12:11:13;7.20;;;6.50;;
7523;SDS011;3803;51.666;7.630;2022-07-30T12:12:40;8.70;;;8.00;;
7523;SDS011;3803;51.666;7.630;2022-07-30T12:13:39;7.95;;;7.30;;
7523;SDS011;3803;51.666;7.630;2022-07-30T12:14:43;7.53;;;6.72;;
7523;SDS011;3803;51.666;7.630;2022-07-30T12:15:36;7.00;;;6.40;;
7523;SDS011;3803;51.666;7.630;2022-07-30T12:16:22;6.72;;;6.13;;
7523;SDS011;3803;51.666;7.630;2022-07-30T12:17:00;6.60;;;6.00;;
7523;SDS011;3803;51.666;7.630;2022-07-30T12:17:47;7.85;;;6.30;;
7523;SDS011;3803;51.666;7.630;2022-07-30T12:19:54;6.72;;;6.22;;
7523;SDS011;3803;51.666;7.630;2022-07-30T12:20:43;7.30;;;6.55;;
7523;SDS011;3803;51.666;7.630;2022-07-30T12:22:08;9.95;;;7.10;;
7523;SDS011;3803;51.666;7.630;2022-07-30T12:22:46;8.70;;;6.40;;
7523;SDS011;3803;51.666;7.630;2022-07-30T12:23:35;11.20;;;6.60;;
7523;SDS011;3803;51.666;7.630;2022-07-30T12:24:25;6.22;;;5.60;;
7523;SDS011;3803;51.666;7.630;2022-07-30T12:25:18;6.60;;;5.90;;
7523;SDS011;3803;51.666;7.630;2022-07-30T12:25:44;6.57;;;5.40;;
7523;SDS011;3803;51.666;7.630;2022-07-30T12:26:05;6.47;;;5.20;;
7523;SDS011;3803;51.666;7.630;2022-07-30T12:26:36;5.80;;;5.20;;
7523;SDS011;3803;51.666;7.630;2022-07-30T12:27:13;5.95;;;5.35;;
7523;SDS011;3803;51.666;7.630;2022-07-30T12:27:50;7.60;;;5.70;;
7523;SDS011;3803;51.666;7.630;2022-07-30T12:28:18;8.30;;;6.03;;
7523;SDS011;3803;51.666;7.630;2022-07-30T12:28:57;6.47;;;5.50;;
7523;SDS011;3803;51.666;7.630;2022-07-30T12:29:49;6.82;;;5.70;;
7523;SDS011;3803;51.666;7.630;2022-07-30T12:30:17;6.65;;;5.35;;
7523;SDS011;3803;51.666;7.630;2022-07-30T12:31:55;6.03;;;5.35;;
7523;SDS011;3803;51.666;7.630;2022-07-30T12:32:33;6.68;;;5.22;;
7523;SDS011;3803;51.666;7.630;2022-07-30T12:33:17;6.00;;;5.40;;
7523;SDS011;3803;51.666;7.630;2022-07-30T12:33:56;5.50;;;5.00;;
7523;SDS011;3803;51.666;7.630;2022-07-30T12:34:28;5.80;;;5.25;;
7523;SDS011;3803;51.666;7.630;2022-07-30T12:35:06;6.97;;;5.10;;
7523;SDS011;3803;51.666;7.630;2022-07-30T12:36:06;6.00;;;4.80;;
7523;SDS011;3803;51.666;7.630;2022-07-30T12:37:09;5.55;;;5.05;;
7523;SDS011;3803;51.666;7.630;2022-07-30T12:38:03;5.88;;;4.75;;
7523;SDS011;3803;51.666;7.630;2022-07-30T12:38:43;5.30;;;4.55;;
7523;SDS011;3803;51.666;7.630;2022-07-30T12:39:22;5.10;;;4.60;;
7523;SDS011;3803;51.666;7.630;2022-07-30T12:40:03;5.68;;;4.80;;
7523;SDS011;3803;51.666;7.630;2022-07-30T12:40:58;7.20;;;4.90;;
7523;SDS011;3803;51.666;7.630;2022-07-30T12:41:44;8.27;;;5.05;;
7523;SDS011;3803;51.666;7.630;2022-07-30T12:42:19;5.43;;;4.97;;
7523;SDS011;3803;51.666;7.630;2022-07-30T12:43:04;6.80;;;5.07;;
7523;SDS011;3803;51.666;7.630;2022-07-30T12:44:42;6.40;;;4.63;;
7523;SDS011;3803;51.666;7.630;2022-07-30T12:46:39;7.30;;;5.50;;
7523;SDS011;3803;51.666;7.630;2022-07-30T12:47:20;6.60;;;5.20;;
7523;SDS011;3803;51.666;7.630;2022-07-30T12:48:09;6.00;;;4.40;;
7523;SDS011;3803;51.666;7.630;2022-07-30T12:53:27;4.03;;;3.55;;
7523;SDS011;3803;51.666;7.630;2022-07-30T12:54:14;4.82;;;3.85;;
7523;SDS011;3803;51.666;7.630;2022-07-30T12:54:37;4.50;;;3.70;;
7523;SDS011;3803;51.666;7.630;2022-07-30T12:55:30;3.72;;;3.42;;
7523;SDS011;3803;51.666;7.630;2022-07-30T12:56:31;3.13;;;2.93;;
7523;SDS011;3803;51.666;7.630;2022-07-30T12:58:39;5.00;;;3.83;;
7523;SDS011;3803;51.666;7.630;2022-07-30T12:59:41;3.60;;;3.30;;
7523;SDS011;3803;51.666;7.630;2022-07-30T13:00:15;4.72;;;2.90;;
7523;SDS011;3803;51.666;7.630;2022-07-30T13:00:57;4.90;;;2.90;;
7523;SDS011;3803;51.666;7.630;2022-07-30T13:01:44;3.15;;;2.90;;
7523;SDS011;3803;51.666;7.630;2022-07-30T13:02:51;3.90;;;3.13;;
7523;SDS011;3803;51.666;7.630;2022-07-30T13:03:24;3.58;;;3.15;;
7523;SDS011;3803;51.666;7.630;2022-07-30T13:03:52;4.10;;;2.90;;
7523;SDS011;3803;51.666;7.630;2022-07-30T13:05:12;4.30;;;2.67;;
7523;SDS011;3803;51.666;7.630;2022-07-30T13:05:58;3.97;;;3.22;;
7523;SDS011;3803;51.666;7.630;2022-07-30T13:06:35;3.90;;;3.00;;
7523;SDS011;3803;51.666;7.630;2022-07-30T13:07:58;4.38;;;2.70;;
7523;SDS011;3803;51.666;7.630;2022-07-30T13:08:46;3.00;;;2.70;;
7523;SDS011;3803;51.666;7.630;2022-07-30T13:09:27;3.65;;;3.00;;
7523;SDS011;3803;51.666;7.630;2022-07-30T13:10:04;3.78;;;3.13;;
7523;SDS011;3803;51.666;7.630;2022-07-30T13:10:53;3.50;;;3.20;;
7523;SDS011;3803;51.666;7.630;2022-07-30T13:11:40;3.10;;;2.90;;
7523;SDS011;3803;51.666;7.630;2022-07-30T13:12:40;2.92;;;2.63;;
7523;SDS011;3803;51.666;7.630;2022-07-30T13:13:06;2.90;;;2.70;;
7523;SDS011;3803;51.666;7.630;2022-07-30T13:13:32;3.30;;;3.10;;
7523;SDS011;3803;51.666;7.630;2022-07-30T13:13:56;3.65;;;3.35;;
7523;SDS011;3803;51.666;7.630;2022-07-30T13:14:28;3.45;;;3.08;;
7523;SDS011;3803;51.666;7.630;2022-07-30T13:14:51;5.22;;;2.95;;
7523;SDS011;3803;51.666;7.630;2022-07-30T13:15:33;4.45;;;3.28;;
7523;SDS011;3803;51.666;7.630;2022-07-30T13:16:18;3.30;;;3.10;;
7523;SDS011;3803;51.666;7.630;2022-07-30T13:16:51;2.83;;;2.53;;
7523;SDS011;3803;51.666;7.630;2022-07-30T13:17:13;2.90;;;2.60;;
7523;SDS011;3803;51.666;7.630;2022-07-30T13:17:44;2.72;;;2.50;;
7523;SDS011;3803;51.666;7.630;2022-07-30T13:18:19;2.63;;;2.42;;
7523;SDS011;3803;51.666;7.630;2022-07-30T13:18:59;3.00;;;2.70;;
7523;SDS011;3803;51.666;7.630;2022-07-30T13:19:28;2.80;;;2.60;;
7523;SDS011;3803;51.666;7.630;2022-07-30T13:20:08;4.18;;;2.70;;
7523;SDS011;3803;51.666;7.630;2022-07-30T13:20:45;4.47;;;2.80;;
7523;SDS011;3803;51.666;7.630;2022-07-30T13:21:22;3.22;;;2.60;;
7523;SDS011;3803;51.666;7.630;2022-07-30T13:21:59;2.47;;;2.28;;
7523;SDS011;3803;51.666;7.630;2022-07-30T13:22:20;2.90;;;2.30;;
7523;SDS011;3803;51.666;7.630;2022-07-30T13:22:54;3.45;;;2.55;;
7523;SDS011;3803;51.666;7.630;2022-07-30T13:24:01;2.65;;;2.38;;
7523;SDS011;3803;51.666;7.630;2022-07-30T13:24:46;3.08;;;2.78;;
7523;SDS011;3803;51.666;7.630;2022-07-30T13:25:16;2.80;;;2.60;;
7523;SDS011;3803;51.666;7.630;2022-07-30T13:25:39;2.20;;;2.10;;
7523;SDS011;3803;51.666;7.630;2022-07-30T13:26:10;2.15;;;2.05;;
7523;SDS011;3803;51.666;7.630;2022-07-30T13:27:19;2.40;;;2.20;;
7523;SDS011;3803;51.666;7.630;2022-07-30T13:27:58;2.70;;;2.50;;
7523;SDS011;3803;51.666;7.630;2022-07-30T13:28:38;2.40;;;2.25;;
7523;SDS011;3803;51.666;7.630;2022-07-30T13:29:42;4.10;;;2.58;;
7523;SDS011;3803;51.666;7.630;2022-07-30T13:30:13;3.75;;;2.50;;
7523;SDS011;3803;51.666;7.630;2022-07-30T13:30:46;2.80;;;2.50;;
7523;SDS011;3803;51.666;7.630;2022-07-30T13:31:43;2.30;;;2.20;;
7523;SDS011;3803;51.666;7.630;2022-07-30T13:32:19;2.17;;;2.08;;
7523;SDS011;3803;51.666;7.630;2022-07-30T13:33:23;2.40;;;2.20;;
7523;SDS011;3803;51.666;7.630;2022-07-30T13:33:55;3.53;;;2.50;;
7523;SDS011;3803;51.666;7.630;2022-07-30T13:34:38;3.25;;;2.33;;
7523;SDS011;3803;51.666;7.630;2022-07-30T13:35:08;3.40;;;2.10;;
7523;SDS011;3803;51.666;7.630;2022-07-30T13:35:31;3.03;;;2.03;;
7523;SDS011;3803;51.666;7.630;2022-07-30T13:36:06;2.83;;;2.20;;
7523;SDS011;3803;51.666;7.630;2022-07-30T13:36:34;2.40;;;2.20;;
7523;SDS011;3803;51.666;7.630;2022-07-30T13:37:18;3.70;;;2.17;;
7523;SDS011;3803;51.666;7.630;2022-07-30T13:37:51;3.40;;;2.00;;
7523;SDS011;3803;51.666;7.630;2022-07-30T13:38:16;2.00;;;1.90;;
7523;SDS011;3803;51.666;7.630;2022-07-30T13:38:52;2.37;;;2.17;;
7523;SDS011;3803;51.666;7.630;2022-07-30T13:39:15;2.67;;;2.47;;
7523;SDS011;3803;51.666;7.630;2022-07-30T13:39:37;2.70;;;2.50;;
7523;SDS011;3803;51.666;7.630;2022-07-30T13:40:14;3.50;;;2.70;;
7523;SDS011;3803;51.666;7.630;2022-07-30T13:40:46;3.45;;;2.65;;
7523;SDS011;3803;51.666;7.630;2022-07-30T13:41:10;2.70;;;2.60;;
7523;SDS011;3803;51.666;7.630;2022-07-30T13:41:48;2.97;;;2.78;;
7523;SDS011;3803;51.666;7.630;2022-07-30T13:42:17;3.90;;;2.85;;
7523;SDS011;3803;51.666;7.630;2022-07-30T13:43:06;2.55;;;2.40;;
7523;SDS011;3803;51.666;7.630;2022-07-30T13:43:48;3.10;;;2.50;;
7523;SDS011;3803;51.666;7.630;2022-07-30T13:44:28;2.90;;;2.60;;
7523;SDS011;3803;51.666;7.630;2022-07-30T13:44:56;2.75;;;2.30;;
7523;SDS011;3803;51.666;7.630;2022-07-30T13:45:35;3.30;;;1.90;;
7523;SDS011;3803;51.666;7.630;2022-07-30T13:46:14;2.05;;;1.95;;
7523;SDS011;3803;51.666;7.630;2022-07-30T13:47:03;2.28;;;2.10;;
7523;SDS011;3803;51.666;7.630;2022-07-30T13:47:51;1.90;;;1.80;;
7523;SDS011;3803;51.666;7.630;2022-07-30T13:48:35;2.60;;;2.40;;
7523;SDS011;3803;51.666;7.630;2022-07-30T13:49:13;3.83;;;2.80;;
7523;SDS011;3803;51.666;7.630;2022-07-30T13:49:41;3.70;;;2.53;;
7523;SDS011;3803;51.666;7.630;2022-07-30T13:51:12;2.50;;;2.30;;
7523;SDS011;3803;51.666;7.630;2022-07-30T13:51:33;2.67;;;2.47;;
7523;SDS011;3803;51.666;7.630;2022-07-30T13:52:24;3.20;;;2.90;;
7523;SDS011;3803;51.666;7.630;2022-07-30T13:53:09;2.40;;;2.30;;
7523;SDS011;3803;51.666;7.630;2022-07-30T13:53:50;3.08;;;2.58;;
7523;SDS011;3803;51.666;7.630;2022-07-30T13:54:34;4.10;;;2.70;;
7523;SDS011;3803;51.666;7.630;2022-07-30T13:55:24;2.40;;;2.30;;
7523;SDS011;3803;51.666;7.630;2022-07-30T13:55:59;2.70;;;2.50;;
7523;SDS011;3803;51.666;7.630;2022-07-30T13:56:37;2.50;;;2.30;;
7523;SDS011;3803;51.666;7.630;2022-07-30T13:57:03;3.90;;;2.50;;
7523;SDS011;3803;51.666;7.630;2022-07-30T13:57:34;3.60;;;2.50;;
7523;SDS011;3803;51.666;7.630;2022-07-30T13:57:55;2.67;;;2.22;;
7523;SDS011;3803;51.666;7.630;2022-07-30T13:58:21;4.22;;;2.00;;
7523;SDS011;3803;51.666;7.630;2022-07-30T13:58:47;5.00;;;2.40;;
7523;SDS011;3803;51.666;7.630;2022-07-30T13:59:22;3.35;;;2.65;;
7523;SDS011;3803;51.666;7.630;2022-07-30T13:59:43;2.58;;;2.38;;
7523;SDS011;3803;51.666;7.630;2022-07-30T14:00:21;2.40;;;2.20;;
7523;SDS011;3803;51.666;7.630;2022-07-30T14:01:00;2.30;;;2.10;;
7523;SDS011;3803;51.666;7.630;2022-07-30T14:02:05;2.97;;;2.67;;
7523;SDS011;3803;51.666;7.630;2022-07-30T14:02:40;4.30;;;2.78;;
7523;SDS011;3803;51.666;7.630;2022-07-30T14:03:37;2.50;;;2.30;;
7523;SDS011;3803;51.666;7.630;2022-07-30T14:04:23;2.50;;;2.30;;
7523;SDS011;3803;51.666;7.630;2022-07-30T14:04:55;2.50;;;2.30;;
7523;SDS011;3803;51.666;7.630;2022-07-30T14:05:58;2.60;;;2.40;;
7523;SDS011;3803;51.666;7.630;2022-07-30T14:06:37;2.40;;;2.20;;
7523;SDS011;3803;51.666;7.630;2022-07-30T14:07:15;2.50;;;2.30;;
7523;SDS011;3803;51.666;7.630;2022-07-30T14:07:45;2.30;;;2.20;;
7523;SDS011;3803;51.666;7.630;2022-07-30T14:08:33;2.60;;;2.40;;
7523;SDS011;3803;51.666;7.630;2022-07-30T14:09:01;3.47;;;2.33;;
7523;SDS011;3803;51.666;7.630;2022-07-30T14:09:42;2.03;;;1.90;;
7523;SDS011;3803;51.666;7.630;2022-07-30T14:10:08;2.17;;;2.00;;
7523;SDS011;3803;51.666;7.630;2022-07-30T14:10:57;2.42;;;2.30;;
7523;SDS011;3803;51.666;7.630;2022-07-30T14:11:48;2.30;;;2.20;;
7523;SDS011;3803;51.666;7.630;2022-07-30T14:12:46;2.90;;;2.20;;
7523;SDS011;3803;51.666;7.630;2022-07-30T14:13:45;2.10;;;2.00;;
7523;SDS011;3803;51.666;7.630;2022-07-30T14:14:34;2.20;;;2.00;;
7523;SDS011;3803;51.666;7.630;2022-07-30T14:15:07;3.25;;;2.10;;
7523;SDS011;3803;51.666;7.630;2022-07-30T14:16:09;4.20;;;2.30;;
7523;SDS011;3803;51.666;7.630;2022-07-30T14:16:46;2.30;;;2.10;;
7523;SDS011;3803;51.666;7.630;2022-07-30T14:17:45;2.65;;;2.30;;
7523;SDS011;3803;51.666;7.630;2022-07-30T14:18:14;2.60;;;2.40;;
7523;SDS011;3803;51.666;7.630;2022-07-30T14:19:05;2.50;;;2.30;;
7523;SDS011;3803;51.666;7.630;2022-07-30T14:19:39;2.65;;;2.30;;
7523;SDS011;3803;51.666;7.630;2022-07-30T14:20:22;2.50;;;2.30;;
7523;SDS011;3803;51.666;7.630;2022-07-30T14:21:42;3.20;;;2.30;;
7523;SDS011;3803;51.666;7.630;2022-07-30T14:22:03;3.47;;;2.28;;
7523;SDS011;3803;51.666;7.630;2022-07-30T14:22:45;2.45;;;2.05;;
7523;SDS011;3803;51.666;7.630;2022-07-30T14:23:26;2.75;;;2.55;;
7523;SDS011;3803;51.666;7.630;2022-07-30T14:23:47;2.75;;;2.55;;
7523;SDS011;3803;51.666;7.630;2022-07-30T14:24:21;3.25;;;2.50;;
7523;SDS011;3803;51.666;7.630;2022-07-30T14:24:55;4.35;;;2.63;;
7523;SDS011;3803;51.666;7.630;2022-07-30T14:25:47;2.95;;;2.35;;
7523;SDS011;3803;51.666;7.630;2022-07-30T14:26:17;3.30;;;2.35;;
7523;SDS011;3803;51.666;7.630;2022-07-30T14:27:05;3.00;;;2.30;;
7523;SDS011;3803;51.666;7.630;2022-07-30T14:28:00;3.45;;;2.40;;
7523;SDS011;3803;51.666;7.630;2022-07-30T14:28:35;3.58;;;2.20;;
7523;SDS011;3803;51.666;7.630;2022-07-30T14:29:14;3.25;;;2.10;;
7523;SDS011;3803;51.666;7.630;2022-07-30T14:29:59;2.20;;;2.00;;
7523;SDS011;3803;51.666;7.630;2022-07-30T14:30:20;2.40;;;2.20;;
7523;SDS011;3803;51.666;7.630;2022-07-30T14:30:52;2.55;;;2.35;;
7523;SDS011;3803;51.666;7.630;2022-07-30T14:31:25;3.58;;;2.30;;
7523;SDS011;3803;51.666;7.630;2022-07-30T14:32:13;3.55;;;2.30;;
7523;SDS011;3803;51.666;7.630;2022-07-30T14:32:57;2.53;;;2.20;;
7523;SDS011;3803;51.666;7.630;2022-07-30T14:33:37;2.10;;;1.90;;
7523;SDS011;3803;51.666;7.630;2022-07-30T14:34:05;2.20;;;2.00;;
7523;SDS011;3803;51.666;7.630;2022-07-30T14:35:09;3.05;;;2.10;;
7523;SDS011;3803;51.666;7.630;2022-07-30T14:35:49;2.72;;;2.10;;
7523;SDS011;3803;51.666;7.630;2022-07-30T14:37:16;2.20;;;2.00;;
7523;SDS011;3803;51.666;7.630;2022-07-30T14:37:55;3.22;;;2.10;;
7523;SDS011;3803;51.666;7.630;2022-07-30T14:38:21;3.03;;;1.90;;
7523;SDS011;3803;51.666;7.630;2022-07-30T14:39:28;4.60;;;2.20;;
7523;SDS011;3803;51.666;7.630;2022-07-30T14:39:49;2.33;;;2.00;;
7523;SDS011;3803;51.666;7.630;2022-07-30T14:40:10;2.20;;;1.97;;
7523;SDS011;3803;51.666;7.630;2022-07-30T14:40:31;3.33;;;2.10;;
7523;SDS011;3803;51.666;7.630;2022-07-30T14:41:07;3.20;;;2.28;;
7523;SDS011;3803;51.666;7.630;2022-07-30T14:41:36;2.30;;;2.10;;
7523;SDS011;3803;51.666;7.630;2022-07-30T14:42:08;2.42;;;2.22;;
7523;SDS011;3803;51.666;7.630;2022-07-30T14:42:39;2.30;;;2.10;;
7523;SDS011;3803;51.666;7.630;2022-07-30T14:43:08;2.78;;;1.90;;
7523;SDS011;3803;51.666;7.630;2022-07-30T14:44:05;2.38;;;2.00;;
7523;SDS011;3803;51.666;7.630;2022-07-30T14:44:42;2.70;;;2.00;;
7523;SDS011;3803;51.666;7.630;2022-07-30T14:45:19;2.30;;;1.90;;
7523;SDS011;3803;51.666;7.630;2022-07-30T14:45:48;1.90;;;1.80;;
7523;SDS011;3803;51.666;7.630;2022-07-30T14:46:36;3.05;;;2.10;;
7523;SDS011;3803;51.666;7.630;2022-07-30T14:47:17;3.60;;;2.20;;
7523;SDS011;3803;51.666;7.630;2022-07-30T14:48:12;2.28;;;1.90;;
7523;SDS011;3803;51.666;7.630;2022-07-30T14:49:08;3.25;;;2.45;;
7523;SDS011;3803;51.666;7.630;2022-07-30T14:49:36;3.28;;;2.40;;
7523;SDS011;3803;51.666;7.630;2022-07-30T14:50:08;2.30;;;2.10;;
7523;SDS011;3803;51.666;7.630;2022-07-30T14:50:39;2.00;;;1.90;;
7523;SDS011;3803;51.666;7.630;2022-07-30T14:51:05;2.03;;;1.90;;
7523;SDS011;3803;51.666;7.630;2022-07-30T14:51:53;1.98;;;1.88;;
7523;SDS011;3803;51.666;7.630;2022-07-30T14:52:36;2.53;;;2.33;;
7523;SDS011;3803;51.666;7.630;2022-07-30T14:53:17;2.42;;;2.03;;
7523;SDS011;3803;51.666;7.630;2022-07-30T14:53:50;4.40;;;2.00;;
7523;SDS011;3803;51.666;7.630;2022-07-30T14:54:24;3.42;;;1.90;;
7523;SDS011;3803;51.666;7.630;2022-07-30T14:55:15;2.63;;;2.10;;
7523;SDS011;3803;51.666;7.630;2022-07-30T14:56:08;4.00;;;2.20;;
7523;SDS011;3803;51.666;7.630;2022-07-30T14:57:01;2.72;;;2.05;;
7523;SDS011;3803;51.666;7.630;2022-07-30T14:59:49;2.97;;;2.20;;
7523;SDS011;3803;51.666;7.630;2022-07-30T15:00:33;3.60;;;2.10;;
7523;SDS011;3803;51.666;7.630;2022-07-30T15:00:54;3.55;;;2.10;;
7523;SDS011;3803;51.666;7.630;2022-07-30T15:01:32;2.30;;;2.10;;
7523;SDS011;3803;51.666;7.630;2022-07-30T15:02:00;2.30;;;2.10;;
7523;SDS011;3803;51.666;7.630;2022-07-30T15:02:52;2.50;;;2.30;;
7523;SDS011;3803;51.666;7.630;2022-07-30T15:03:19;2.50;;;2.30;;
7523;SDS011;3803;51.666;7.630;2022-07-30T15:03:52;2.35;;;2.15;;
7523;SDS011;3803;51.666;7.630;2022-07-30T15:04:32;2.80;;;1.98;;
7523;SDS011;3803;51.666;7.630;2022-07-30T15:05:18;2.47;;;2.20;;
7523;SDS011;3803;51.666;7.630;2022-07-30T15:06:17;2.88;;;2.30;;
7523;SDS011;3803;51.666;7.630;2022-07-30T15:07:03;2.30;;;2.10;;
7523;SDS011;3803;51.666;7.630;2022-07-30T15:07:41;2.40;;;2.20;;
7523;SDS011;3803;51.666;7.630;2022-07-30T15:08:36;3.65;;;2.65;;
7523;SDS011;3803;51.666;7.630;2022-07-30T15:09:28;3.22;;;2.40;;
7523;SDS011;3803;51.666;7.630;2022-07-30T15:10:29;3.45;;;2.25;;
7523;SDS011;3803;51.666;7.630;2022-07-30T15:10:57;2.30;;;2.10;;
7523;SDS011;3803;51.666;7.630;2022-07-30T15:11:21;2.70;;;2.15;;
7523;SDS011;3803;51.666;7.630;2022-07-30T15:11:54;2.30;;;2.10;;
7523;SDS011;3803;51.666;7.630;2022-07-30T15:13:31;3.03;;;2.10;;
7523;SDS011;3803;51.666;7.630;2022-07-30T15:13:53;2.78;;;1.90;;
7523;SDS011;3803;51.666;7.630;2022-07-30T15:14:27;2.97;;;2.00;;
7523;SDS011;3803;51.666;7.630;2022-07-30T15:15:05;3.15;;;2.20;;
7523;SDS011;3803;51.666;7.630;2022-07-30T15:16:02;3.55;;;2.30;;
7523;SDS011;3803;51.666;7.630;2022-07-30T15:16:45;2.30;;;2.10;;
7523;SDS011;3803;51.666;7.630;2022-07-30T15:17:21;2.75;;;2.30;;
7523;SDS011;3803;51.666;7.630;2022-07-30T15:17:45;2.65;;;2.30;;
7523;SDS011;3803;51.666;7.630;2022-07-30T15:18:11;2.70;;;2.20;;
7523;SDS011;3803;51.666;7.630;2022-07-30T15:18:52;2.50;;;2.13;;
7523;SDS011;3803;51.666;7.630;2022-07-30T15:19:13;2.20;;;2.10;;
7523;SDS011;3803;51.666;7.630;2022-07-30T15:20:51;4.10;;;2.20;;
7523;SDS011;3803;51.666;7.630;2022-07-30T15:21:43;3.80;;;2.00;;
7523;SDS011;3803;51.666;7.630;2022-07-30T15:23:27;2.45;;;2.10;;
7523;SDS011;3803;51.666;7.630;2022-07-30T15:24:27;2.63;;;2.15;;
7523;SDS011;3803;51.666;7.630;2022-07-30T15:24:58;3.25;;;2.30;;
7523;SDS011;3803;51.666;7.630;2022-07-30T15:25:29;2.42;;;2.20;;
7523;SDS011;3803;51.666;7.630;2022-07-30T15:26:18;2.35;;;2.15;;
7523;SDS011;3803;51.666;7.630;2022-07-30T15:26:45;2.58;;;2.20;;
7523;SDS011;3803;51.666;7.630;2022-07-30T15:27:16;2.30;;;2.10;;
7523;SDS011;3803;51.666;7.630;2022-07-30T15:27:53;2.30;;;2.10;;
7523;SDS011;3803;51.666;7.630;2022-07-30T15:28:56;2.40;;;2.20;;
7523;SDS011;3803;51.666;7.630;2022-07-30T15:30:49;2.60;;;2.40;;
7523;SDS011;3803;51.666;7.630;2022-07-30T15:31:12;3.95;;;2.40;;
7523;SDS011;3803;51.666;7.630;2022-07-30T15:31:55;3.40;;;2.40;;
7523;SDS011;3803;51.666;7.630;2022-07-30T15:32:55;4.35;;;2.30;;
7523;SDS011;3803;51.666;7.630;2022-07-30T15:33:38;3.08;;;2.00;;
7523;SDS011;3803;51.666;7.630;2022-07-30T15:34:28;2.22;;;2.00;;
7523;SDS011;3803;51.666;7.630;2022-07-30T15:35:06;2.30;;;2.10;;
7523;SDS011;3803;51.666;7.630;2022-07-30T15:35:47;2.40;;;2.20;;
7523;SDS011;3803;51.666;7.630;2022-07-30T15:36:20;3.03;;;2.30;;
7523;SDS011;3803;51.666;7.630;2022-07-30T15:36:56;4.85;;;2.65;;
7523;SDS011;3803;51.666;7.630;2022-07-30T15:37:27;4.60;;;2.70;;
7523;SDS011;3803;51.666;7.630;2022-07-30T15:37:58;3.05;;;2.28;;
7523;SDS011;3803;51.666;7.630;2022-07-30T15:38:37;2.97;;;2.47;;
7523;SDS011;3803;51.666;7.630;2022-07-30T15:39:17;2.97;;;2.28;;
7523;SDS011;3803;51.666;7.630;2022-07-30T15:40:08;3.38;;;2.20;;
7523;SDS011;3803;51.666;7.630;2022-07-30T15:40:34;2.38;;;2.17;;
7523;SDS011;3803;51.666;7.630;2022-07-30T15:41:05;3.55;;;2.25;;
7523;SDS011;3803;51.666;7.630;2022-07-30T15:41:40;4.10;;;2.60;;
7523;SDS011;3803;51.666;7.630;2022-07-30T15:42:30;4.53;;;2.40;;
7523;SDS011;3803;51.666;7.630;2022-07-30T15:43:04;3.45;;;2.30;;
7523;SDS011;3803;51.666;7.630;2022-07-30T15:44:02;3.38;;;2.20;;
7523;SDS011;3803;51.666;7.630;2022-07-30T15:44:30;3.58;;;2.30;;